Sentani Airport
WAJJ : now visible

Airfield :











YOU CAN JOIN US ON...

 
LOGIN :

Register | Disclaimer

   EN    FR    IT 

 









Legend :    VFR   Marginal VFR   IFR   Intensive IFR   Very Intensive IFR
Visi :
Ceiling :
>= 8 km
>= 3000ft
5 to 8 km
1000 to 3000 ft
1500m to 5 km
500 to 1000 ft
800 to 1500m
200 to 500 ft
< 800m
< 200 ft
Symbols :   Thunderstorms  Fog  Heavy snow  Heavy precipitations  Wind > 20 kt






- Airport Elevation : 289 ft
- IATA code : DJJ


WAJJ - Sentani

CURRENT METAR :
  • 260730Z 29014KT 9999 FEW011CB SCT012 30/22 Q1005 NOSIG

EXPIRED METARs :
  • 260700Z 28014KT 9999 FEW011CB SCT012 31/21 Q1005 NOSIG
  • 260630Z 28013KT 9999 SCT012 32/21 Q1005 NOSIG
  • 260600Z 28015KT 9999 SCT012 33/21 Q1005 NOSIG
  • 260530Z 29012KT 9999 SCT012 33/22 Q1005 NOSIG
  • 260500Z 27014KT 9999 SCT012 34/22 Q1005 NOSIG

TAF N/A



MET'MAP, your aeronautical weather chart ! - Copyright ORBIFLY December 2007 - Disclaimer

ORBIFLY MET'MAP TEAM :

Programming & Development : Alexandra Zaïnal
Concept & original design : Baudouin d'Aumeries
Assistance for programming : Marc-Olivier Méhu
Technical & hardware support : Manuel Goepfert

Contact : metmap@orbifly.com




SOURCES & CREDITS :

   NOAA       Earth
Advisory